sensor_id;sensor_type;location;lat;lon;timestamp;temperature;humidity
1956;DHT22;978;48.314;11.562;2023-12-14T00:01:15;20.50;68.40
1956;DHT22;978;48.314;11.562;2023-12-14T00:03:42;20.50;68.40
1956;DHT22;978;48.314;11.562;2023-12-14T00:06:10;20.50;68.40
1956;DHT22;978;48.314;11.562;2023-12-14T00:08:40;20.50;68.40
1956;DHT22;978;48.314;11.562;2023-12-14T00:11:08;22.10;69.30
1956;DHT22;978;48.314;11.562;2023-12-14T00:13:36;20.50;68.40
1956;DHT22;978;48.314;11.562;2023-12-14T00:16:05;20.50;68.40
1956;DHT22;978;48.314;11.562;2023-12-14T00:18:36;20.50;68.40
1956;DHT22;978;48.314;11.562;2023-12-14T00:21:04;20.50;68.30
1956;DHT22;978;48.314;11.562;2023-12-14T00:23:31;20.50;68.30
1956;DHT22;978;48.314;11.562;2023-12-14T00:26:00;20.70;68.40
1956;DHT22;978;48.314;11.562;2023-12-14T00:28:28;20.50;68.30
1956;DHT22;978;48.314;11.562;2023-12-14T00:30:57;20.50;68.30
1956;DHT22;978;48.314;11.562;2023-12-14T00:33:24;20.50;68.30
1956;DHT22;978;48.314;11.562;2023-12-14T00:35:51;20.50;68.30
1956;DHT22;978;48.314;11.562;2023-12-14T00:38:19;20.50;68.30
1956;DHT22;978;48.314;11.562;2023-12-14T00:40:47;20.50;68.30
1956;DHT22;978;48.314;11.562;2023-12-14T00:43:16;20.50;68.30
1956;DHT22;978;48.314;11.562;2023-12-14T00:45:44;22.10;69.20
1956;DHT22;978;48.314;11.562;2023-12-14T00:48:11;20.50;68.20
1956;DHT22;978;48.314;11.562;2023-12-14T00:50:41;20.50;68.20
1956;DHT22;978;48.314;11.562;2023-12-14T00:53:11;20.50;68.20
1956;DHT22;978;48.314;11.562;2023-12-14T00:55:39;20.50;68.20
1956;DHT22;978;48.314;11.562;2023-12-14T00:58:09;20.50;68.20
1956;DHT22;978;48.314;11.562;2023-12-14T01:00:41;20.50;68.20
1956;DHT22;978;48.314;11.562;2023-12-14T01:03:10;20.50;68.20
1956;DHT22;978;48.314;11.562;2023-12-14T01:05:38;20.50;68.10
1956;DHT22;978;48.314;11.562;2023-12-14T01:08:05;20.60;68.20
1956;DHT22;978;48.314;11.562;2023-12-14T01:10:35;20.70;68.20
1956;DHT22;978;48.314;11.562;2023-12-14T01:13:03;20.50;68.10
1956;DHT22;978;48.314;11.562;2023-12-14T01:15:31;20.50;68.10
1956;DHT22;978;48.314;11.562;2023-12-14T01:18:00;20.50;68.10
1956;DHT22;978;48.314;11.562;2023-12-14T01:20:28;21.50;68.70
1956;DHT22;978;48.314;11.562;2023-12-14T01:22:56;20.50;68.10
1956;DHT22;978;48.314;11.562;2023-12-14T01:25:25;20.50;68.10
1956;DHT22;978;48.314;11.562;2023-12-14T01:27:53;20.50;68.10
1956;DHT22;978;48.314;11.562;2023-12-14T01:30:21;20.50;68.10
1956;DHT22;978;48.314;11.562;2023-12-14T01:32:50;20.50;68.10
1956;DHT22;978;48.314;11.562;2023-12-14T01:35:19;20.50;68.10
1956;DHT22;978;48.314;11.562;2023-12-14T01:37:56;20.50;68.10
1956;DHT22;978;48.314;11.562;2023-12-14T01:40:24;20.50;68.00
1956;DHT22;978;48.314;11.562;2023-12-14T01:42:52;20.50;68.00
1956;DHT22;978;48.314;11.562;2023-12-14T01:45:22;20.50;68.00
1956;DHT22;978;48.314;11.562;2023-12-14T01:47:51;20.50;68.00
1956;DHT22;978;48.314;11.562;2023-12-14T01:50:21;20.50;68.00
1956;DHT22;978;48.314;11.562;2023-12-14T01:52:49;20.50;68.00
1956;DHT22;978;48.314;11.562;2023-12-14T01:55:17;20.50;68.00
1956;DHT22;978;48.314;11.562;2023-12-14T01:57:45;20.50;68.00
1956;DHT22;978;48.314;11.562;2023-12-14T02:00:19;20.40;67.90
1956;DHT22;978;48.314;11.562;2023-12-14T02:02:51;20.50;67.90
1956;DHT22;978;48.314;11.562;2023-12-14T02:05:21;20.50;67.40
1956;DHT22;978;48.314;11.562;2023-12-14T02:07:50;20.50;67.90
1956;DHT22;978;48.314;11.562;2023-12-14T02:10:18;20.60;68.00
1956;DHT22;978;48.314;11.562;2023-12-14T02:12:46;20.70;68.00
1956;DHT22;978;48.314;11.562;2023-12-14T02:15:14;20.40;67.90
1956;DHT22;978;48.314;11.562;2023-12-14T02:17:42;20.50;67.40
1956;DHT22;978;48.314;11.562;2023-12-14T02:20:09;20.50;67.90
1956;DHT22;978;48.314;11.562;2023-12-14T02:22:49;20.50;67.90
1956;DHT22;978;48.314;11.562;2023-12-14T02:25:17;20.50;67.80
1956;DHT22;978;48.314;11.562;2023-12-14T02:27:46;20.50;67.80
1956;DHT22;978;48.314;11.562;2023-12-14T02:30:13;20.50;67.80
1956;DHT22;978;48.314;11.562;2023-12-14T02:32:42;20.50;67.80
1956;DHT22;978;48.314;11.562;2023-12-14T02:35:12;20.50;67.80
1956;DHT22;978;48.314;11.562;2023-12-14T02:37:40;20.50;67.30
1956;DHT22;978;48.314;11.562;2023-12-14T02:40:10;20.40;67.70
1956;DHT22;978;48.314;11.562;2023-12-14T02:42:38;20.50;67.80
1956;DHT22;978;48.314;11.562;2023-12-14T02:45:06;20.50;67.80
1956;DHT22;978;48.314;11.562;2023-12-14T02:47:35;20.50;67.80
1956;DHT22;978;48.314;11.562;2023-12-14T02:50:03;20.50;67.80
1956;DHT22;978;48.314;11.562;2023-12-14T02:52:31;20.40;67.70
1956;DHT22;978;48.314;11.562;2023-12-14T02:54:59;20.50;67.70
1956;DHT22;978;48.314;11.562;2023-12-14T02:57:28;20.50;67.70
1956;DHT22;978;48.314;11.562;2023-12-14T02:59:56;20.50;67.70
1956;DHT22;978;48.314;11.562;2023-12-14T03:02:22;20.50;67.70
1956;DHT22;978;48.314;11.562;2023-12-14T03:04:50;20.50;67.70
1956;DHT22;978;48.314;11.562;2023-12-14T03:07:18;20.50;67.70
1956;DHT22;978;48.314;11.562;2023-12-14T03:09:45;20.50;67.70
1956;DHT22;978;48.314;11.562;2023-12-14T03:12:13;20.50;67.60
1956;DHT22;978;48.314;11.562;2023-12-14T03:14:41;20.50;67.70
1956;DHT22;978;48.314;11.562;2023-12-14T03:17:09;20.60;67.70
1956;DHT22;978;48.314;11.562;2023-12-14T03:19:40;20.50;67.60
1956;DHT22;978;48.314;11.562;2023-12-14T03:22:08;20.60;67.70
1956;DHT22;978;48.314;11.562;2023-12-14T03:24:36;21.30;68.10
1956;DHT22;978;48.314;11.562;2023-12-14T03:27:05;20.50;67.60
1956;DHT22;978;48.314;11.562;2023-12-14T03:29:33;20.50;67.60
1956;DHT22;978;48.314;11.562;2023-12-14T03:32:03;20.50;67.60
1956;DHT22;978;48.314;11.562;2023-12-14T03:34:31;20.50;67.60
1956;DHT22;978;48.314;11.562;2023-12-14T03:36:59;22.30;68.60
1956;DHT22;978;48.314;11.562;2023-12-14T03:39:27;20.50;67.60
1956;DHT22;978;48.314;11.562;2023-12-14T03:41:55;20.50;67.60
1956;DHT22;978;48.314;11.562;2023-12-14T03:44:23;20.50;67.60
1956;DHT22;978;48.314;11.562;2023-12-14T03:46:51;20.50;67.60
1956;DHT22;978;48.314;11.562;2023-12-14T03:49:22;20.50;67.60
1956;DHT22;978;48.314;11.562;2023-12-14T03:51:50;20.50;67.60
1956;DHT22;978;48.314;11.562;2023-12-14T03:54:18;20.50;67.60
1956;DHT22;978;48.314;11.562;2023-12-14T03:56:46;20.50;67.50
1956;DHT22;978;48.314;11.562;2023-12-14T03:59:13;20.50;67.50
1956;DHT22;978;48.314;11.562;2023-12-14T04:01:41;20.50;67.50
1956;DHT22;978;48.314;11.562;2023-12-14T04:04:09;21.30;67.90
1956;DHT22;978;48.314;11.562;2023-12-14T04:06:38;20.80;67.70
1956;DHT22;978;48.314;11.562;2023-12-14T04:09:05;20.50;67.50
1956;DHT22;978;48.314;11.562;2023-12-14T04:11:31;20.50;67.50
1956;DHT22;978;48.314;11.562;2023-12-14T04:14:02;20.50;67.50
1956;DHT22;978;48.314;11.562;2023-12-14T04:16:30;20.40;67.40
1956;DHT22;978;48.314;11.562;2023-12-14T04:18:57;20.50;67.40
1956;DHT22;978;48.314;11.562;2023-12-14T04:21:27;20.50;67.40
1956;DHT22;978;48.314;11.562;2023-12-14T04:23:57;20.40;67.40
1956;DHT22;978;48.314;11.562;2023-12-14T04:26:25;20.50;67.40
1956;DHT22;978;48.314;11.562;2023-12-14T04:28:52;20.80;67.60
1956;DHT22;978;48.314;11.562;2023-12-14T04:31:22;20.50;67.40
1956;DHT22;978;48.314;11.562;2023-12-14T04:33:52;20.50;67.40
1956;DHT22;978;48.314;11.562;2023-12-14T04:36:20;20.40;67.30
1956;DHT22;978;48.314;11.562;2023-12-14T04:38:48;20.50;67.30
1956;DHT22;978;48.314;11.562;2023-12-14T04:41:18;20.50;67.40
1956;DHT22;978;48.314;11.562;2023-12-14T04:43:46;20.50;67.40
1956;DHT22;978;48.314;11.562;2023-12-14T04:46:14;20.70;67.50
1956;DHT22;978;48.314;11.562;2023-12-14T04:48:41;20.50;67.30
1956;DHT22;978;48.314;11.562;2023-12-14T04:51:13;20.50;67.40
1956;DHT22;978;48.314;11.562;2023-12-14T04:53:41;20.50;67.40
1956;DHT22;978;48.314;11.562;2023-12-14T04:56:12;20.50;67.40
1956;DHT22;978;48.314;11.562;2023-12-14T04:58:41;20.50;67.30
1956;DHT22;978;48.314;11.562;2023-12-14T05:01:09;20.50;66.80
1956;DHT22;978;48.314;11.562;2023-12-14T05:03:37;20.50;67.30
1956;DHT22;978;48.314;11.562;2023-12-14T05:06:08;20.50;67.40
1956;DHT22;978;48.314;11.562;2023-12-14T05:08:36;20.50;67.40
1956;DHT22;978;48.314;11.562;2023-12-14T05:11:04;20.50;67.50
1956;DHT22;978;48.314;11.562;2023-12-14T05:13:32;20.50;67.50
1956;DHT22;978;48.314;11.562;2023-12-14T05:16:02;20.50;67.50
1956;DHT22;978;48.314;11.562;2023-12-14T05:18:30;20.50;67.60
1956;DHT22;978;48.314;11.562;2023-12-14T05:20:56;20.40;67.50
1956;DHT22;978;48.314;11.562;2023-12-14T05:23:27;20.50;67.60
1956;DHT22;978;48.314;11.562;2023-12-14T05:25:55;20.50;67.60
1956;DHT22;978;48.314;11.562;2023-12-14T05:28:21;20.40;67.60
1956;DHT22;978;48.314;11.562;2023-12-14T05:30:51;20.50;67.70
1956;DHT22;978;48.314;11.562;2023-12-14T05:33:22;21.40;68.20
1956;DHT22;978;48.314;11.562;2023-12-14T05:35:50;20.50;67.70
1956;DHT22;978;48.314;11.562;2023-12-14T05:38:18;20.50;67.70
1956;DHT22;978;48.314;11.562;2023-12-14T05:40:46;20.50;67.80
1956;DHT22;978;48.314;11.562;2023-12-14T05:43:14;20.50;67.80
1956;DHT22;978;48.314;11.562;2023-12-14T05:45:42;20.50;67.80
1956;DHT22;978;48.314;11.562;2023-12-14T05:48:10;20.50;67.30
1956;DHT22;978;48.314;11.562;2023-12-14T05:50:42;20.50;67.80
1956;DHT22;978;48.314;11.562;2023-12-14T05:53:13;20.50;67.80
1956;DHT22;978;48.314;11.562;2023-12-14T05:55:42;20.40;67.80
1956;DHT22;978;48.314;11.562;2023-12-14T05:58:10;20.60;67.90
1956;DHT22;978;48.314;11.562;2023-12-14T06:00:37;22.10;68.80
1956;DHT22;978;48.314;11.562;2023-12-14T06:03:05;20.50;67.90
1956;DHT22;978;48.314;11.562;2023-12-14T06:05:33;20.70;68.00
1956;DHT22;978;48.314;11.562;2023-12-14T06:08:03;20.80;68.10
1956;DHT22;978;48.314;11.562;2023-12-14T06:10:31;20.40;68.00
1956;DHT22;978;48.314;11.562;2023-12-14T06:12:59;21.10;68.30
1956;DHT22;978;48.314;11.562;2023-12-14T06:15:27;20.80;68.10
1956;DHT22;978;48.314;11.562;2023-12-14T06:17:55;20.50;67.90
1956;DHT22;978;48.314;11.562;2023-12-14T06:20:23;20.50;67.90
1956;DHT22;978;48.314;11.562;2023-12-14T06:22:51;20.90;68.20
1956;DHT22;978;48.314;11.562;2023-12-14T06:25:22;22.00;68.80
1956;DHT22;978;48.314;11.562;2023-12-14T06:27:48;20.50;67.50
1956;DHT22;978;48.314;11.562;2023-12-14T06:30:15;20.50;68.00
1956;DHT22;978;48.314;11.562;2023-12-14T06:32:42;20.40;67.90
1956;DHT22;978;48.314;11.562;2023-12-14T06:35:09;20.50;68.00
1956;DHT22;978;48.314;11.562;2023-12-14T06:37:35;20.70;68.10
1956;DHT22;978;48.314;11.562;2023-12-14T06:40:03;20.50;68.10
1956;DHT22;978;48.314;11.562;2023-12-14T06:42:31;20.50;68.10
1956;DHT22;978;48.314;11.562;2023-12-14T06:44:58;20.50;68.10
1956;DHT22;978;48.314;11.562;2023-12-14T06:47:25;20.40;68.00
1956;DHT22;978;48.314;11.562;2023-12-14T06:49:52;20.50;68.10
1956;DHT22;978;48.314;11.562;2023-12-14T06:52:19;21.80;68.80
1956;DHT22;978;48.314;11.562;2023-12-14T06:54:46;20.50;68.10
1956;DHT22;978;48.314;11.562;2023-12-14T06:57:12;20.50;68.10
1956;DHT22;978;48.314;11.562;2023-12-14T06:59:40;20.50;68.10
1956;DHT22;978;48.314;11.562;2023-12-14T07:02:07;20.50;68.10
1956;DHT22;978;48.314;11.562;2023-12-14T07:04:34;21.00;68.40
1956;DHT22;978;48.314;11.562;2023-12-14T07:07:01;20.40;68.10
1956;DHT22;978;48.314;11.562;2023-12-14T07:09:28;20.50;68.20
1956;DHT22;978;48.314;11.562;2023-12-14T07:11:54;20.50;68.20
1956;DHT22;978;48.314;11.562;2023-12-14T07:14:21;20.50;68.20
1956;DHT22;978;48.314;11.562;2023-12-14T07:16:50;20.50;68.20
1956;DHT22;978;48.314;11.562;2023-12-14T07:19:16;20.50;68.20
1956;DHT22;978;48.314;11.562;2023-12-14T07:21:43;20.50;68.20
1956;DHT22;978;48.314;11.562;2023-12-14T07:24:10;20.40;67.70
1956;DHT22;978;48.314;11.562;2023-12-14T07:26:36;20.40;68.20
1956;DHT22;978;48.314;11.562;2023-12-14T07:29:03;21.70;68.90
1956;DHT22;978;48.314;11.562;2023-12-14T07:31:30;20.70;68.40
1956;DHT22;978;48.314;11.562;2023-12-14T07:34:00;20.50;68.30
1956;DHT22;978;48.314;11.562;2023-12-14T07:36:27;20.70;68.40
1956;DHT22;978;48.314;11.562;2023-12-14T07:38:54;20.50;68.30
1956;DHT22;978;48.314;11.562;2023-12-14T07:41:20;21.20;68.70
1956;DHT22;978;48.314;11.562;2023-12-14T07:43:51;21.30;68.80
1956;DHT22;978;48.314;11.562;2023-12-14T07:48:45;20.50;67.90
1956;DHT22;978;48.314;11.562;2023-12-14T07:51:13;20.50;68.40
1956;DHT22;978;48.314;11.562;2023-12-14T07:53:40;20.50;68.40
1956;DHT22;978;48.314;11.562;2023-12-14T07:56:08;20.50;68.40
1956;DHT22;978;48.314;11.562;2023-12-14T07:58:35;20.50;68.40
1956;DHT22;978;48.314;11.562;2023-12-14T08:01:02;20.50;68.40
1956;DHT22;978;48.314;11.562;2023-12-14T08:03:28;20.50;68.40
1956;DHT22;978;48.314;11.562;2023-12-14T08:05:55;20.50;68.40
1956;DHT22;978;48.314;11.562;2023-12-14T08:08:23;20.50;68.40
1956;DHT22;978;48.314;11.562;2023-12-14T08:10:50;20.50;68.40
1956;DHT22;978;48.314;11.562;2023-12-14T08:13:17;20.50;68.50
1956;DHT22;978;48.314;11.562;2023-12-14T08:15:44;20.40;67.90
1956;DHT22;978;48.314;11.562;2023-12-14T08:18:11;20.50;68.00
1956;DHT22;978;48.314;11.562;2023-12-14T08:20:38;20.50;68.50
1956;DHT22;978;48.314;11.562;2023-12-14T08:23:04;20.50;68.50
1956;DHT22;978;48.314;11.562;2023-12-14T08:25:32;20.50;68.50
1956;DHT22;978;48.314;11.562;2023-12-14T08:27:59;23.80;70.40
1956;DHT22;978;48.314;11.562;2023-12-14T08:30:26;20.50;68.50
1956;DHT22;978;48.314;11.562;2023-12-14T08:32:52;20.50;68.50
1956;DHT22;978;48.314;11.562;2023-12-14T08:35:19;20.40;68.40
1956;DHT22;978;48.314;11.562;2023-12-14T08:37:47;20.50;68.00
1956;DHT22;978;48.314;11.562;2023-12-14T08:40:13;20.50;68.50
1956;DHT22;978;48.314;11.562;2023-12-14T08:42:41;20.50;68.50
1956;DHT22;978;48.314;11.562;2023-12-14T08:45:09;20.40;68.50
1956;DHT22;978;48.314;11.562;2023-12-14T08:47:38;20.50;68.60
1956;DHT22;978;48.314;11.562;2023-12-14T08:50:06;20.50;68.60
1956;DHT22;978;48.314;11.562;2023-12-14T08:52:34;20.50;68.60
1956;DHT22;978;48.314;11.562;2023-12-14T08:55:00;20.50;68.60
1956;DHT22;978;48.314;11.562;2023-12-14T08:57:27;20.50;68.60
1956;DHT22;978;48.314;11.562;2023-12-14T08:59:55;20.50;68.60
1956;DHT22;978;48.314;11.562;2023-12-14T09:02:22;20.40;68.50
1956;DHT22;978;48.314;11.562;2023-12-14T09:04:49;20.50;68.60
1956;DHT22;978;48.314;11.562;2023-12-14T09:07:17;20.50;68.60
1956;DHT22;978;48.314;11.562;2023-12-14T09:09:43;20.50;68.60
1956;DHT22;978;48.314;11.562;2023-12-14T09:12:10;20.50;68.60
1956;DHT22;978;48.314;11.562;2023-12-14T09:14:37;20.40;68.50
1956;DHT22;978;48.314;11.562;2023-12-14T09:17:05;20.50;68.60
1956;DHT22;978;48.314;11.562;2023-12-14T09:19:32;20.40;68.60
1956;DHT22;978;48.314;11.562;2023-12-14T09:21:59;20.50;68.60
1956;DHT22;978;48.314;11.562;2023-12-14T09:24:26;20.50;68.60
1956;DHT22;978;48.314;11.562;2023-12-14T09:26:53;20.70;68.80
1956;DHT22;978;48.314;11.562;2023-12-14T09:29:19;20.50;68.70
1956;DHT22;978;48.314;11.562;2023-12-14T09:31:46;20.50;68.10
1956;DHT22;978;48.314;11.562;2023-12-14T09:34:14;20.50;68.70
1956;DHT22;978;48.314;11.562;2023-12-14T09:36:41;20.50;68.70
1956;DHT22;978;48.314;11.562;2023-12-14T09:39:08;20.60;68.70
1956;DHT22;978;48.314;11.562;2023-12-14T09:41:36;20.50;68.70
1956;DHT22;978;48.314;11.562;2023-12-14T09:44:03;20.40;68.70
1956;DHT22;978;48.314;11.562;2023-12-14T09:46:31;20.50;68.70
1956;DHT22;978;48.314;11.562;2023-12-14T09:49:00;20.40;68.10
1956;DHT22;978;48.314;11.562;2023-12-14T09:51:29;20.50;68.70
1956;DHT22;978;48.314;11.562;2023-12-14T09:53:56;20.50;68.70
1956;DHT22;978;48.314;11.562;2023-12-14T09:56:24;20.50;68.70
1956;DHT22;978;48.314;11.562;2023-12-14T09:58:50;21.30;69.10
1956;DHT22;978;48.314;11.562;2023-12-14T10:01:24;20.50;68.70
1956;DHT22;978;48.314;11.562;2023-12-14T10:03:56;20.50;68.70
1956;DHT22;978;48.314;11.562;2023-12-14T10:06:34;20.50;68.70
1956;DHT22;978;48.314;11.562;2023-12-14T10:09:01;20.50;68.70
1956;DHT22;978;48.314;11.562;2023-12-14T10:11:28;20.50;68.70
1956;DHT22;978;48.314;11.562;2023-12-14T10:13:55;20.50;68.70
1956;DHT22;978;48.314;11.562;2023-12-14T10:16:29;20.50;68.70
1956;DHT22;978;48.314;11.562;2023-12-14T10:18:57;20.50;68.70
1956;DHT22;978;48.314;11.562;2023-12-14T10:21:24;20.50;68.70
1956;DHT22;978;48.314;11.562;2023-12-14T10:23:52;20.50;68.70
1956;DHT22;978;48.314;11.562;2023-12-14T10:26:20;20.50;68.70
1956;DHT22;978;48.314;11.562;2023-12-14T10:28:48;20.50;68.70
1956;DHT22;978;48.314;11.562;2023-12-14T10:31:15;20.40;68.70
1956;DHT22;978;48.314;11.562;2023-12-14T10:33:42;20.40;68.70
1956;DHT22;978;48.314;11.562;2023-12-14T10:36:09;20.50;68.70
1956;DHT22;978;48.314;11.562;2023-12-14T10:38:37;20.50;68.80
1956;DHT22;978;48.314;11.562;2023-12-14T10:41:06;20.40;68.10
1956;DHT22;978;48.314;11.562;2023-12-14T10:43:36;20.40;68.70
1956;DHT22;978;48.314;11.562;2023-12-14T10:46:05;20.50;68.70
1956;DHT22;978;48.314;11.562;2023-12-14T10:48:34;20.50;68.80
1956;DHT22;978;48.314;11.562;2023-12-14T10:51:01;20.40;68.70
1956;DHT22;978;48.314;11.562;2023-12-14T10:53:30;20.50;68.80
1956;DHT22;978;48.314;11.562;2023-12-14T10:55:59;20.50;68.80
1956;DHT22;978;48.314;11.562;2023-12-14T10:58:44;20.50;68.80
1956;DHT22;978;48.314;11.562;2023-12-14T11:01:13;20.40;68.70
1956;DHT22;978;48.314;11.562;2023-12-14T11:03:41;20.50;68.80
1956;DHT22;978;48.314;11.562;2023-12-14T11:06:20;20.50;68.80
1956;DHT22;978;48.314;11.562;2023-12-14T11:08:47;20.40;68.70
1956;DHT22;978;48.314;11.562;2023-12-14T11:11:15;20.40;68.70
1956;DHT22;978;48.314;11.562;2023-12-14T11:13:47;20.50;68.80
1956;DHT22;978;48.314;11.562;2023-12-14T11:16:20;20.50;68.80
1956;DHT22;978;48.314;11.562;2023-12-14T11:18:47;20.50;68.80
1956;DHT22;978;48.314;11.562;2023-12-14T11:21:18;20.50;68.30
1956;DHT22;978;48.314;11.562;2023-12-14T11:23:45;20.40;68.70
1956;DHT22;978;48.314;11.562;2023-12-14T11:26:21;20.40;68.80
1956;DHT22;978;48.314;11.562;2023-12-14T11:28:50;20.50;68.80
1956;DHT22;978;48.314;11.562;2023-12-14T11:31:17;20.50;68.80
1956;DHT22;978;48.314;11.562;2023-12-14T11:33:43;20.50;68.80
1956;DHT22;978;48.314;11.562;2023-12-14T11:36:14;20.50;68.80
1956;DHT22;978;48.314;11.562;2023-12-14T11:38:41;20.40;68.80
1956;DHT22;978;48.314;11.562;2023-12-14T11:41:08;20.40;68.80
1956;DHT22;978;48.314;11.562;2023-12-14T11:43:39;20.50;68.80
1956;DHT22;978;48.314;11.562;2023-12-14T11:46:08;20.50;68.80
1956;DHT22;978;48.314;11.562;2023-12-14T11:48:35;20.50;68.80
1956;DHT22;978;48.314;11.562;2023-12-14T11:51:03;20.50;68.80
1956;DHT22;978;48.314;11.562;2023-12-14T11:53:30;20.50;68.90
1956;DHT22;978;48.314;11.562;2023-12-14T11:55:56;20.50;68.90
1956;DHT22;978;48.314;11.562;2023-12-14T11:58:24;20.50;68.80
1956;DHT22;978;48.314;11.562;2023-12-14T12:00:51;20.40;68.80
1956;DHT22;978;48.314;11.562;2023-12-14T12:03:20;20.50;68.90
1956;DHT22;978;48.314;11.562;2023-12-14T12:05:48;20.50;68.40
1956;DHT22;978;48.314;11.562;2023-12-14T12:08:17;20.60;69.00
1956;DHT22;978;48.314;11.562;2023-12-14T12:10:46;20.50;68.90
1956;DHT22;978;48.314;11.562;2023-12-14T12:13:14;20.40;68.80
1956;DHT22;978;48.314;11.562;2023-12-14T12:15:41;20.50;68.90
1956;DHT22;978;48.314;11.562;2023-12-14T12:18:09;20.50;68.90
1956;DHT22;978;48.314;11.562;2023-12-14T12:20:38;20.50;68.90
1956;DHT22;978;48.314;11.562;2023-12-14T12:23:04;20.50;68.90
1956;DHT22;978;48.314;11.562;2023-12-14T12:25:32;20.50;68.90
1956;DHT22;978;48.314;11.562;2023-12-14T12:28:00;21.40;69.30
1956;DHT22;978;48.314;11.562;2023-12-14T12:30:27;20.50;68.90
1956;DHT22;978;48.314;11.562;2023-12-14T12:32:54;20.50;68.40
1956;DHT22;978;48.314;11.562;2023-12-14T12:35:22;20.50;68.90
1956;DHT22;978;48.314;11.562;2023-12-14T12:37:50;20.50;68.90
1956;DHT22;978;48.314;11.562;2023-12-14T12:40:20;20.40;68.80
1956;DHT22;978;48.314;11.562;2023-12-14T12:42:46;20.50;68.90
1956;DHT22;978;48.314;11.562;2023-12-14T12:45:14;20.50;68.90
1956;DHT22;978;48.314;11.562;2023-12-14T12:47:42;20.40;68.80
1956;DHT22;978;48.314;11.562;2023-12-14T12:50:09;20.50;68.80
1956;DHT22;978;48.314;11.562;2023-12-14T12:52:35;20.50;68.90
1956;DHT22;978;48.314;11.562;2023-12-14T12:55:05;20.40;68.80
1956;DHT22;978;48.314;11.562;2023-12-14T12:57:32;20.50;68.90
1956;DHT22;978;48.314;11.562;2023-12-14T12:59:59;20.70;69.00
1956;DHT22;978;48.314;11.562;2023-12-14T13:02:26;20.50;68.90
1956;DHT22;978;48.314;11.562;2023-12-14T13:04:52;16.60;66.60
1956;DHT22;978;48.314;11.562;2023-12-14T13:07:20;20.50;68.90
1956;DHT22;978;48.314;11.562;2023-12-14T13:09:47;20.50;68.90
1956;DHT22;978;48.314;11.562;2023-12-14T13:12:15;20.50;68.90
1956;DHT22;978;48.314;11.562;2023-12-14T13:14:41;20.50;68.80
1956;DHT22;978;48.314;11.562;2023-12-14T13:17:08;20.50;68.90
1956;DHT22;978;48.314;11.562;2023-12-14T13:19:35;20.50;68.90
1956;DHT22;978;48.314;11.562;2023-12-14T13:22:02;20.50;68.90
1956;DHT22;978;48.314;11.562;2023-12-14T13:24:28;20.50;68.90
1956;DHT22;978;48.314;11.562;2023-12-14T13:26:56;20.50;68.90
1956;DHT22;978;48.314;11.562;2023-12-14T13:29:24;20.40;68.80
1956;DHT22;978;48.314;11.562;2023-12-14T13:31:50;20.40;68.30
1956;DHT22;978;48.314;11.562;2023-12-14T13:34:17;20.60;69.00
1956;DHT22;978;48.314;11.562;2023-12-14T13:36:44;20.50;68.90
1956;DHT22;978;48.314;11.562;2023-12-14T13:39:10;20.50;68.90
1956;DHT22;978;48.314;11.562;2023-12-14T13:41:38;20.50;68.90
1956;DHT22;978;48.314;11.562;2023-12-14T13:44:04;20.50;68.90
1956;DHT22;978;48.314;11.562;2023-12-14T13:46:33;20.50;68.40
1956;DHT22;978;48.314;11.562;2023-12-14T13:48:59;20.50;68.90
1956;DHT22;978;48.314;11.562;2023-12-14T13:51:27;20.50;68.90
1956;DHT22;978;48.314;11.562;2023-12-14T13:53:54;20.50;68.90
1956;DHT22;978;48.314;11.562;2023-12-14T13:56:21;20.50;68.90
1956;DHT22;978;48.314;11.562;2023-12-14T13:58:48;20.50;68.90
1956;DHT22;978;48.314;11.562;2023-12-14T14:01:14;20.50;68.90
1956;DHT22;978;48.314;11.562;2023-12-14T14:03:42;20.40;68.90
1956;DHT22;978;48.314;11.562;2023-12-14T14:06:10;20.50;68.90
1956;DHT22;978;48.314;11.562;2023-12-14T14:08:37;20.50;68.90
1956;DHT22;978;48.314;11.562;2023-12-14T14:11:04;20.50;68.90
1956;DHT22;978;48.314;11.562;2023-12-14T14:13:31;20.50;68.90
1956;DHT22;978;48.314;11.562;2023-12-14T14:15:58;20.50;68.40
1956;DHT22;978;48.314;11.562;2023-12-14T14:18:25;20.40;68.90
1956;DHT22;978;48.314;11.562;2023-12-14T14:20:53;20.50;68.90
1956;DHT22;978;48.314;11.562;2023-12-14T14:23:20;20.50;69.00
1956;DHT22;978;48.314;11.562;2023-12-14T14:25:47;20.50;68.90
1956;DHT22;978;48.314;11.562;2023-12-14T14:28:13;20.50;68.90
1956;DHT22;978;48.314;11.562;2023-12-14T14:30:40;20.40;68.90
1956;DHT22;978;48.314;11.562;2023-12-14T14:33:07;20.40;68.80
1956;DHT22;978;48.314;11.562;2023-12-14T14:35:33;20.50;68.90
1956;DHT22;978;48.314;11.562;2023-12-14T14:38:03;20.50;69.00
1956;DHT22;978;48.314;11.562;2023-12-14T14:40:31;20.70;69.00
1956;DHT22;978;48.314;11.562;2023-12-14T14:42:58;20.40;68.80
1956;DHT22;978;48.314;11.562;2023-12-14T14:45:25;20.50;68.90
1956;DHT22;978;48.314;11.562;2023-12-14T14:47:51;20.40;68.90
1956;DHT22;978;48.314;11.562;2023-12-14T14:50:18;20.50;69.00
1956;DHT22;978;48.314;11.562;2023-12-14T14:52:45;20.50;68.90
1956;DHT22;978;48.314;11.562;2023-12-14T14:55:13;20.50;69.00
1956;DHT22;978;48.314;11.562;2023-12-14T14:57:40;20.40;68.40
1956;DHT22;978;48.314;11.562;2023-12-14T15:00:07;20.40;68.90
1956;DHT22;978;48.314;11.562;2023-12-14T15:02:34;20.50;69.00
1956;DHT22;978;48.314;11.562;2023-12-14T15:05:01;20.50;69.00
1956;DHT22;978;48.314;11.562;2023-12-14T15:07:28;20.50;69.00
1956;DHT22;978;48.314;11.562;2023-12-14T15:09:55;20.50;69.00
1956;DHT22;978;48.314;11.562;2023-12-14T15:12:23;20.50;69.00
1956;DHT22;978;48.314;11.562;2023-12-14T15:14:50;20.50;69.00
1956;DHT22;978;48.314;11.562;2023-12-14T15:17:17;20.50;69.00
1956;DHT22;978;48.314;11.562;2023-12-14T15:19:44;20.50;68.50
1956;DHT22;978;48.314;11.562;2023-12-14T15:22:12;20.60;69.00
1956;DHT22;978;48.314;11.562;2023-12-14T15:24:38;20.50;69.00
1956;DHT22;978;48.314;11.562;2023-12-14T15:27:05;20.50;69.10
1956;DHT22;978;48.314;11.562;2023-12-14T15:29:33;21.80;69.80
1956;DHT22;978;48.314;11.562;2023-12-14T15:32:00;20.50;69.00
1956;DHT22;978;48.314;11.562;2023-12-14T15:34:27;20.50;69.00
1956;DHT22;978;48.314;11.562;2023-12-14T15:36:53;20.50;69.00
1956;DHT22;978;48.314;11.562;2023-12-14T15:39:20;20.50;69.00
1956;DHT22;978;48.314;11.562;2023-12-14T15:41:47;20.50;69.00
1956;DHT22;978;48.314;11.562;2023-12-14T15:44:14;20.50;69.00
1956;DHT22;978;48.314;11.562;2023-12-14T15:46:42;20.50;69.10
1956;DHT22;978;48.314;11.562;2023-12-14T15:49:09;20.50;69.10
1956;DHT22;978;48.314;11.562;2023-12-14T15:51:39;20.50;69.10
1956;DHT22;978;48.314;11.562;2023-12-14T15:54:05;20.50;69.10
1956;DHT22;978;48.314;11.562;2023-12-14T15:56:32;20.40;69.00
1956;DHT22;978;48.314;11.562;2023-12-14T15:58:59;20.40;68.60
1956;DHT22;978;48.314;11.562;2023-12-14T16:01:25;20.50;69.10
1956;DHT22;978;48.314;11.562;2023-12-14T16:03:53;20.50;69.10
1956;DHT22;978;48.314;11.562;2023-12-14T16:06:20;20.50;69.20
1956;DHT22;978;48.314;11.562;2023-12-14T16:08:47;20.60;69.20